createdAt,value
2018-12-06T00:02:30.892Z,73.15
2018-12-06T00:05:01.957Z,75.18
2018-12-06T00:07:35.016Z,74.19
2018-12-06T00:10:07.928Z,72.01
2018-12-06T00:12:38.878Z,73.74
2018-12-06T00:15:24.137Z,76.93
2018-12-06T00:17:55.046Z,78.47
2018-12-06T00:20:26.075Z,79.06
2018-12-06T00:22:57.000Z,77.81
2018-12-06T00:25:31.076Z,77.30
2018-12-06T00:28:12.777Z,78.05
2018-12-06T00:30:44.589Z,78.70
2018-12-06T00:33:15.104Z,78.84
2018-12-06T00:35:53.443Z,77.34
2018-12-06T00:38:26.063Z,75.20
2018-12-06T00:41:02.278Z,74.87
2018-12-06T00:43:33.269Z,73.13
2018-12-06T00:46:03.882Z,72.63
2018-12-06T00:48:34.446Z,73.05
2018-12-06T00:51:05.003Z,73.52
2018-12-06T00:53:35.509Z,72.48
2018-12-06T00:56:06.017Z,72.44
2018-12-06T00:58:36.643Z,74.89
2018-12-06T01:01:07.375Z,73.89
2018-12-06T01:03:37.946Z,75.66
2018-12-06T01:06:08.504Z,76.71
2018-12-06T01:08:39.075Z,76.80
2018-12-06T01:11:09.583Z,76.41
2018-12-06T01:13:40.570Z,74.33
2018-12-06T01:16:11.121Z,72.38
2018-12-06T01:18:41.721Z,70.41
2018-12-06T01:21:12.243Z,67.75
2018-12-06T01:23:42.854Z,66.23
2018-12-06T01:26:13.759Z,65.60
2018-12-06T01:28:44.387Z,66.02
2018-12-06T01:31:16.317Z,68.05
2018-12-06T01:33:48.416Z,65.86
2018-12-06T01:36:19.349Z,64.27
2018-12-06T01:38:50.310Z,62.30
2018-12-06T01:41:21.485Z,61.87
2018-12-06T01:43:54.446Z,62.24
2018-12-06T01:46:25.546Z,63.59
2018-12-06T01:48:56.464Z,62.04
2018-12-06T01:51:27.403Z,63.23
2018-12-06T01:54:00.359Z,63.57
2018-12-06T01:56:31.488Z,65.11
2018-12-06T01:59:04.443Z,64.04
2018-12-06T02:01:37.473Z,64.32
2018-12-06T02:04:09.177Z,63.10
2018-12-06T02:06:39.863Z,63.76
2018-12-06T02:09:10.940Z,66.23
2018-12-06T02:11:41.600Z,67.33
2018-12-06T02:14:14.384Z,67.20
2018-12-06T02:16:48.212Z,66.23
2018-12-06T02:19:21.484Z,65.61
2018-12-06T02:21:53.319Z,65.05
2018-12-06T02:24:26.675Z,66.81
2018-12-06T02:26:59.574Z,68.10
2018-12-06T02:29:35.643Z,70.20
2018-12-06T02:32:07.577Z,70.92
2018-12-06T02:34:38.555Z,71.44
2018-12-06T02:37:11.590Z,71.61
2018-12-06T02:39:42.678Z,71.91
2018-12-06T02:42:13.580Z,72.30
2018-12-06T02:44:44.652Z,72.66
2018-12-06T02:47:17.751Z,71.30
2018-12-06T02:49:48.789Z,71.46
2018-12-06T02:52:20.096Z,71.07
2018-12-06T02:54:50.633Z,70.34
2018-12-06T02:57:23.615Z,70.56
2018-12-06T02:59:54.697Z,71.00
2018-12-06T03:02:28.422Z,70.86
2018-12-06T03:05:08.102Z,70.20
2018-12-06T03:07:40.983Z,71.63
2018-12-06T03:10:11.876Z,71.17
2018-12-06T03:12:54.545Z,70.02
2018-12-06T03:18:13.870Z,70.21
2018-12-06T03:20:44.388Z,70.37
2018-12-06T03:23:15.598Z,70.89
2018-12-06T03:25:46.152Z,70.79
2018-12-06T03:28:19.848Z,70.69
2018-12-06T03:30:52.929Z,70.34
2018-12-06T03:33:23.983Z,70.37
2018-12-06T03:36:02.860Z,70.39
2018-12-06T03:38:34.959Z,70.85
2018-12-06T03:41:05.491Z,71.30
2018-12-06T03:43:36.072Z,71.11
2018-12-06T03:46:06.820Z,71.27
2018-12-06T03:48:37.686Z,70.62
2018-12-06T03:51:08.444Z,70.43
2018-12-06T03:53:39.363Z,70.48
2018-12-06T03:56:10.727Z,70.56
2018-12-06T03:58:41.234Z,70.74
2018-12-06T04:01:11.783Z,70.62
2018-12-06T04:03:42.307Z,70.26
2018-12-06T04:06:12.890Z,70.30
2018-12-06T04:08:43.398Z,69.73
2018-12-06T04:11:13.921Z,69.65
2018-12-06T04:13:44.531Z,69.33
2018-12-06T04:16:15.059Z,68.39
2018-12-06T04:18:45.726Z,67.66
2018-12-06T04:21:16.443Z,68.57
2018-12-06T04:23:46.955Z,69.36
2018-12-06T04:26:18.116Z,69.32
2018-12-06T04:28:48.652Z,69.06
2018-12-06T04:31:19.854Z,69.37
2018-12-06T04:33:52.183Z,68.60
2018-12-06T04:36:23.217Z,67.70
2018-12-06T04:38:54.136Z,67.00
2018-12-06T04:41:27.160Z,67.17
2018-12-06T04:43:58.040Z,68.02
2018-12-06T04:46:30.358Z,68.56
2018-12-06T04:49:03.109Z,68.86
2018-12-06T04:51:35.299Z,68.29
2018-12-06T04:54:07.315Z,69.14
2018-12-06T04:56:38.939Z,68.97
2018-12-06T04:59:12.172Z,69.92
2018-12-06T05:01:43.068Z,70.27
2018-12-06T05:04:14.327Z,69.49
2018-12-06T05:06:47.279Z,70.12
2018-12-06T05:09:20.444Z,70.79
2018-12-06T05:11:51.306Z,70.92
2018-12-06T05:14:22.535Z,71.67
2018-12-06T05:16:55.249Z,71.73
2018-12-06T05:19:26.273Z,70.55
2018-12-06T05:21:58.325Z,71.27
2018-12-06T05:24:30.422Z,71.51
2018-12-06T05:27:02.437Z,71.81
2018-12-06T05:29:34.776Z,72.12
2018-12-06T05:32:05.160Z,72.16
2018-12-06T05:34:36.175Z,70.91
2018-12-06T05:37:07.091Z,69.87
2018-12-06T05:39:37.614Z,70.96
2018-12-06T05:42:08.193Z,71.08
2018-12-06T05:44:38.787Z,72.13
2018-12-06T05:47:09.378Z,72.08
2018-12-06T05:49:40.231Z,71.60
2018-12-06T05:52:11.043Z,69.72
2018-12-06T05:54:44.333Z,69.15
2018-12-06T05:57:15.459Z,69.35
2018-12-06T05:59:46.413Z,69.79
2018-12-06T06:02:19.857Z,70.64
2018-12-06T06:04:50.490Z,70.45
2018-12-06T06:07:21.611Z,71.68
2018-12-06T06:09:52.539Z,72.38
2018-12-06T06:12:25.514Z,71.96
2018-12-06T06:14:56.688Z,71.34
2018-12-06T06:17:27.729Z,71.51
2018-12-06T06:20:00.784Z,71.35
2018-12-06T06:22:31.703Z,71.58
2018-12-06T06:25:05.123Z,72.23
2018-12-06T06:27:35.813Z,72.62
2018-12-06T06:30:06.645Z,71.34
2018-12-06T06:32:37.419Z,69.90
2018-12-06T06:35:11.269Z,69.05
2018-12-06T06:37:44.538Z,69.84
2018-12-06T06:40:33.760Z,68.05
2018-12-06T06:43:07.632Z,66.98
2018-12-06T06:48:29.664Z,67.47
2018-12-06T06:51:02.817Z,67.74
2018-12-06T06:53:35.683Z,69.20
2018-12-06T06:56:07.110Z,69.99
2018-12-06T06:58:38.867Z,70.82
2018-12-06T07:01:10.743Z,71.69
2018-12-06T07:03:41.903Z,72.44
2018-12-06T07:06:28.950Z,71.71
2018-12-06T07:09:01.536Z,72.35
2018-12-06T07:11:32.224Z,72.65
2018-12-06T07:14:02.847Z,72.00
2018-12-06T07:16:34.541Z,71.06
2018-12-06T07:19:04.867Z,71.33
2018-12-06T07:21:35.383Z,70.95
2018-12-06T07:24:05.927Z,70.09
2018-12-06T07:26:36.517Z,71.42
2018-12-06T07:29:07.281Z,71.43
2018-12-06T07:31:37.579Z,71.80
2018-12-06T07:34:08.236Z,71.26
2018-12-06T07:36:38.850Z,72.80
2018-12-06T07:39:09.744Z,71.23
2018-12-06T07:41:40.307Z,70.49
2018-12-06T07:44:10.934Z,70.08
2018-12-06T07:46:42.245Z,69.16
2018-12-06T07:49:14.820Z,69.01
2018-12-06T07:51:48.367Z,67.95
2018-12-06T07:54:18.981Z,68.57
2018-12-06T07:56:50.724Z,66.70
2018-12-06T07:59:23.108Z,64.62
2018-12-06T08:01:54.049Z,64.54
2018-12-06T08:04:24.884Z,67.31
2018-12-06T08:06:56.150Z,68.55
2018-12-06T08:09:29.278Z,68.80
2018-12-06T08:12:01.344Z,69.50
2018-12-06T08:14:31.958Z,70.49
2018-12-06T08:17:04.019Z,70.99
2018-12-06T08:19:34.924Z,70.25
2018-12-06T08:22:07.007Z,67.55
2018-12-06T08:24:37.689Z,66.46
2018-12-06T08:27:08.285Z,67.04
2018-12-06T08:29:38.878Z,66.72
2018-12-06T08:32:09.481Z,67.04
2018-12-06T08:34:39.825Z,66.76
2018-12-06T08:37:10.573Z,66.89
2018-12-06T08:39:41.171Z,69.81
2018-12-06T08:42:11.776Z,69.32
2018-12-06T08:44:42.428Z,70.40
2018-12-06T08:47:13.011Z,69.71
2018-12-06T08:49:47.231Z,70.05
2018-12-06T08:52:18.572Z,69.30
2018-12-06T08:54:51.418Z,68.48
2018-12-06T08:57:24.599Z,66.94
2018-12-06T08:59:55.268Z,65.97
2018-12-06T09:02:26.165Z,69.32
2018-12-06T09:04:57.294Z,69.09
2018-12-06T09:07:30.599Z,69.56
2018-12-06T09:10:01.417Z,69.22
2018-12-06T09:12:32.002Z,68.64
2018-12-06T09:15:02.392Z,69.13
2018-12-06T09:17:33.420Z,68.84
2018-12-06T09:20:05.612Z,66.83
2018-12-06T09:22:36.385Z,66.29
2018-12-06T09:25:07.372Z,66.97
2018-12-06T09:27:38.236Z,65.34
2018-12-06T09:30:10.584Z,65.14
2018-12-06T09:32:41.302Z,66.60
2018-12-06T09:35:12.328Z,66.03
2018-12-06T09:37:50.293Z,68.06
2018-12-06T09:40:32.171Z,65.78
2018-12-06T09:43:04.539Z,65.11
2018-12-06T09:45:36.079Z,64.81
2018-12-06T09:48:23.771Z,64.06
2018-12-06T09:50:57.602Z,64.68
2018-12-06T09:53:28.585Z,65.39
2018-12-06T09:55:59.655Z,67.26
2018-12-06T09:58:31.539Z,65.43
2018-12-06T10:01:03.924Z,64.61
2018-12-06T10:03:34.427Z,64.28
2018-12-06T10:06:05.146Z,63.28
2018-12-06T10:08:35.650Z,63.53
2018-12-06T10:11:06.873Z,63.43
2018-12-06T10:13:40.470Z,64.03
2018-12-06T10:16:11.755Z,62.52
2018-12-06T10:18:44.722Z,64.13
2018-12-06T10:21:15.452Z,63.87
2018-12-06T10:23:46.794Z,64.21
2018-12-06T10:29:23.128Z,65.50
2018-12-06T10:31:54.709Z,66.15
2018-12-06T10:34:26.356Z,66.40
2018-12-06T10:36:59.654Z,66.15
2018-12-06T10:39:30.280Z,65.31
2018-12-06T10:42:00.908Z,65.80
2018-12-06T10:44:32.155Z,65.64
2018-12-06T10:47:04.896Z,68.67
2018-12-06T10:49:35.776Z,66.97
2018-12-06T10:52:08.902Z,65.20
2018-12-06T10:54:39.728Z,63.76
2018-12-06T10:57:10.842Z,63.11
2018-12-06T10:59:43.624Z,61.86
2018-12-06T11:02:19.922Z,61.89
2018-12-06T11:04:51.615Z,63.98
2018-12-06T11:07:22.532Z,64.66
2018-12-06T11:09:53.248Z,63.64
2018-12-06T11:12:23.948Z,62.68
2018-12-06T11:14:54.735Z,62.53
2018-12-06T11:17:25.391Z,62.61
2018-12-06T11:19:55.959Z,63.22
2018-12-06T11:22:27.447Z,63.35
2018-12-06T11:24:58.141Z,63.55
2018-12-06T11:27:28.538Z,63.21
2018-12-06T11:29:59.679Z,63.65
2018-12-06T11:32:30.411Z,64.92
2018-12-06T11:35:00.836Z,65.14
2018-12-06T11:37:31.510Z,65.09
2018-12-06T11:40:02.715Z,65.35
2018-12-06T11:42:33.336Z,65.65
2018-12-06T11:45:04.320Z,65.62
2018-12-06T11:47:37.126Z,65.72
2018-12-06T11:50:09.155Z,65.91
2018-12-06T11:52:41.239Z,65.91
2018-12-06T11:55:12.410Z,66.88
2018-12-06T11:57:51.061Z,66.57
2018-12-06T12:00:31.619Z,67.37
2018-12-06T12:03:03.743Z,67.15
2018-12-06T12:05:49.089Z,67.50
2018-12-06T12:08:22.287Z,67.16
2018-12-06T12:10:53.952Z,68.02
2018-12-06T12:13:26.308Z,67.33
2018-12-06T12:15:57.046Z,66.79
2018-12-06T12:18:28.025Z,67.49
2018-12-06T12:20:58.823Z,67.43
2018-12-06T12:23:29.161Z,66.45
2018-12-06T12:26:00.217Z,66.51
2018-12-06T12:28:31.371Z,67.76
2018-12-06T12:31:04.786Z,68.28
2018-12-06T12:33:36.323Z,68.74
2018-12-06T12:36:13.081Z,68.76
2018-12-06T12:38:46.512Z,69.13
2018-12-06T12:41:19.479Z,69.22
2018-12-06T12:43:50.323Z,68.49
2018-12-06T12:46:21.014Z,69.24
2018-12-06T12:48:51.856Z,69.42
2018-12-06T12:51:22.557Z,69.91
2018-12-06T12:53:53.263Z,69.96
2018-12-06T12:56:23.947Z,70.10
2018-12-06T12:58:57.609Z,70.43
2018-12-06T13:01:30.413Z,69.97
2018-12-06T13:04:01.573Z,68.98
2018-12-06T13:06:32.344Z,70.37
2018-12-06T13:09:07.771Z,70.30
2018-12-06T13:11:38.615Z,70.79
2018-12-06T13:14:11.497Z,71.40
2018-12-06T13:16:44.332Z,71.53
2018-12-06T13:19:15.043Z,72.38
2018-12-06T13:21:45.950Z,73.45
2018-12-06T13:24:16.483Z,74.28
2018-12-06T13:26:47.255Z,74.35
2018-12-06T13:29:17.975Z,74.21
2018-12-06T13:31:48.567Z,75.19
2018-12-06T13:34:19.577Z,74.45
2018-12-06T13:36:50.030Z,73.50
2018-12-06T13:39:20.674Z,74.06
2018-12-06T13:41:51.470Z,74.38
2018-12-06T13:44:22.068Z,74.63
2018-12-06T13:46:52.591Z,74.40
2018-12-06T13:49:24.575Z,74.03
2018-12-06T13:51:58.891Z,75.53
2018-12-06T13:54:32.267Z,76.62
2018-12-06T13:57:09.570Z,77.42
2018-12-06T13:59:40.275Z,75.94
2018-12-06T14:02:10.959Z,75.29
2018-12-06T14:04:41.587Z,73.95
2018-12-06T14:07:12.306Z,73.82
2018-12-06T14:09:42.639Z,73.91
2018-12-06T14:12:13.482Z,72.99
2018-12-06T14:14:44.213Z,72.93
2018-12-06T14:17:14.829Z,73.75
2018-12-06T14:19:45.828Z,73.33
2018-12-06T14:22:18.848Z,74.00
2018-12-06T14:24:49.512Z,73.56
2018-12-06T14:27:22.901Z,74.80
2018-12-06T14:29:53.787Z,75.81
2018-12-06T14:32:25.021Z,76.02
2018-12-06T14:34:55.808Z,74.74
2018-12-06T14:37:29.095Z,73.70
2018-12-06T14:39:59.786Z,72.79
2018-12-06T14:42:30.650Z,74.58
2018-12-06T14:45:04.467Z,74.60
2018-12-06T14:47:36.177Z,75.28
2018-12-06T14:50:11.919Z,77.19
2018-12-06T14:53:04.866Z,78.62
2018-12-06T14:55:35.746Z,77.91
2018-12-06T14:58:07.898Z,79.26
2018-12-06T15:00:39.032Z,80.35
2018-12-06T15:03:12.895Z,77.85
2018-12-06T15:05:45.088Z,76.67
2018-12-06T15:08:16.154Z,75.69
2018-12-06T15:10:58.714Z,75.87
2018-12-06T15:13:29.507Z,75.32
2018-12-06T15:16:00.415Z,74.99
2018-12-06T15:18:32.171Z,74.62
2018-12-06T15:21:04.433Z,74.04
2018-12-06T15:23:36.053Z,74.12
2018-12-06T15:26:09.732Z,73.75
2018-12-06T15:28:43.202Z,73.65
2018-12-06T15:31:16.186Z,73.45
2018-12-06T15:33:47.023Z,73.63
2018-12-06T15:36:18.319Z,73.56
2018-12-06T15:38:51.102Z,72.82
2018-12-06T15:41:22.227Z,74.55
2018-12-06T15:43:53.259Z,75.51
2018-12-06T15:46:24.293Z,75.85
2018-12-06T15:48:55.043Z,77.04
2018-12-06T15:51:26.027Z,76.85
2018-12-06T15:53:56.643Z,77.42
2018-12-06T15:56:27.310Z,77.17
2018-12-06T15:58:59.471Z,76.55
2018-12-06T16:01:33.137Z,76.20
2018-12-06T16:04:04.988Z,75.82
2018-12-06T16:06:36.343Z,76.30
2018-12-06T16:09:09.716Z,77.15
2018-12-06T16:11:42.412Z,76.40
2018-12-06T16:14:13.310Z,75.58
2018-12-06T16:16:46.219Z,75.85
2018-12-06T16:19:17.327Z,76.43
2018-12-06T16:21:49.383Z,76.86
2018-12-06T16:24:20.347Z,77.37
2018-12-06T16:26:52.484Z,77.66
2018-12-06T16:29:23.416Z,77.02
2018-12-06T16:31:55.586Z,76.87
2018-12-06T16:34:26.418Z,76.72
2018-12-06T16:36:57.369Z,76.98
2018-12-06T16:39:27.660Z,76.93
2018-12-06T16:41:57.973Z,78.08
2018-12-06T16:44:28.751Z,78.06
2018-12-06T16:46:59.587Z,78.90
2018-12-06T16:49:31.008Z,78.09
2018-12-06T16:52:01.978Z,78.05
2018-12-06T16:54:32.552Z,79.52
2018-12-06T16:57:05.534Z,79.82
2018-12-06T16:59:36.606Z,78.86
2018-12-06T17:02:09.635Z,78.03
2018-12-06T17:04:42.600Z,78.68
2018-12-06T17:07:13.649Z,77.95
2018-12-06T17:09:45.488Z,78.38
2018-12-06T17:12:18.007Z,78.47
2018-12-06T17:14:48.672Z,78.46
2018-12-06T17:17:21.773Z,78.46
2018-12-06T17:19:53.266Z,77.58
2018-12-06T17:22:25.975Z,77.91
2018-12-06T17:24:56.616Z,76.32
2018-12-06T17:27:27.740Z,76.56
2018-12-06T17:29:58.909Z,77.60
2018-12-06T17:32:31.753Z,78.60
2018-12-06T17:35:05.326Z,78.55
2018-12-06T17:37:36.827Z,78.93
2018-12-06T17:40:10.239Z,79.30
2018-12-06T17:42:42.744Z,78.75
2018-12-06T17:45:14.706Z,79.37
2018-12-06T17:47:52.027Z,79.05
2018-12-06T17:50:26.605Z,79.49
2018-12-06T17:53:10.445Z,80.25
2018-12-06T17:55:52.219Z,79.60
2018-12-06T17:58:26.050Z,77.83
2018-12-06T18:00:56.722Z,77.68
2018-12-06T18:03:29.835Z,76.75
2018-12-06T18:06:00.763Z,75.12
2018-12-06T18:08:31.784Z,77.06
2018-12-06T18:11:03.074Z,75.96
2018-12-06T18:13:33.622Z,75.60
2018-12-06T18:16:05.886Z,76.30
2018-12-06T18:18:40.423Z,77.21
2018-12-06T18:21:10.611Z,76.79
2018-12-06T18:23:43.928Z,78.15
2018-12-06T18:26:14.795Z,77.53
2018-12-06T18:28:48.543Z,77.61
2018-12-06T18:31:22.076Z,77.25
2018-12-06T18:33:55.065Z,77.20
2018-12-06T18:36:26.917Z,76.51
2018-12-06T18:38:59.046Z,77.63
2018-12-06T18:41:30.118Z,78.60
2018-12-06T18:44:03.283Z,77.88
2018-12-06T18:46:36.032Z,77.72
2018-12-06T18:49:08.952Z,77.84
2018-12-06T18:51:42.100Z,77.58
2018-12-06T18:54:14.988Z,76.20
2018-12-06T18:56:45.484Z,76.85
2018-12-06T18:59:16.102Z,76.85
2018-12-06T19:01:47.545Z,76.88
2018-12-06T19:04:20.115Z,77.30
2018-12-06T19:06:51.679Z,76.87
2018-12-06T19:09:24.653Z,77.28
2018-12-06T19:11:55.499Z,76.64
2018-12-06T19:14:26.127Z,77.39
2018-12-06T19:17:01.886Z,77.63
2018-12-06T19:19:32.923Z,78.03
2018-12-06T19:22:04.932Z,76.40
2018-12-06T19:24:37.081Z,77.12
2018-12-06T19:27:09.453Z,77.88
2018-12-06T19:29:42.859Z,77.05
2018-12-06T19:32:16.215Z,75.76
2018-12-06T19:34:49.775Z,77.79
2018-12-06T19:37:28.025Z,79.70
2018-12-06T19:40:33.096Z,79.54
2018-12-06T19:43:10.684Z,79.80
2018-12-06T19:45:42.975Z,79.07
2018-12-06T19:48:13.581Z,80.84
2018-12-06T19:50:44.143Z,80.26
2018-12-06T19:53:18.738Z,82.98
2018-12-06T19:55:51.938Z,81.79
2018-12-06T19:58:24.367Z,82.07
2018-12-06T20:00:56.218Z,80.41
2018-12-06T20:03:33.611Z,80.30
2018-12-06T20:06:07.032Z,78.64
2018-12-06T20:08:45.789Z,77.94
2018-12-06T20:11:18.472Z,79.70
2018-12-06T20:13:49.725Z,78.20
2018-12-06T20:16:20.352Z,76.54
2018-12-06T20:18:51.063Z,76.66
2018-12-06T20:21:23.021Z,79.17
2018-12-06T20:23:59.509Z,78.18
2018-12-06T20:26:31.874Z,79.86
2018-12-06T20:29:02.616Z,80.71
2018-12-06T20:31:34.638Z,79.28
2018-12-06T20:34:12.283Z,79.41
2018-12-06T20:36:44.881Z,79.90
2018-12-06T20:39:18.818Z,80.27
2018-12-06T20:41:56.388Z,80.19
2018-12-06T20:44:29.769Z,79.83
2018-12-06T20:47:02.899Z,79.58
2018-12-06T20:49:33.601Z,79.55
2018-12-06T20:52:07.387Z,82.74
2018-12-06T20:54:46.617Z,81.56
2018-12-06T20:57:21.708Z,81.02
2018-12-06T20:59:56.379Z,78.40
2018-12-06T21:02:33.328Z,77.75
2018-12-06T21:05:07.440Z,77.30
2018-12-06T21:07:43.305Z,77.23
2018-12-06T21:13:04.941Z,78.81
2018-12-06T21:15:36.249Z,79.38
2018-12-06T21:18:06.942Z,79.17
2018-12-06T21:20:50.333Z,79.32
2018-12-06T21:23:24.078Z,78.29
2018-12-06T21:25:56.730Z,77.16
2018-12-06T21:28:29.959Z,76.42
2018-12-06T21:31:00.943Z,76.47
2018-12-06T21:33:31.735Z,76.25
2018-12-06T21:36:04.002Z,76.94
2018-12-06T21:38:37.901Z,77.08
2018-12-06T21:41:12.242Z,75.39
2018-12-06T21:43:44.194Z,77.10
2018-12-06T21:46:14.871Z,77.35
2018-12-06T21:48:46.175Z,78.42
2018-12-06T21:51:21.782Z,78.22
2018-12-06T21:53:52.866Z,79.83
2018-12-06T21:56:43.582Z,83.01
2018-12-06T21:59:15.784Z,82.87
2018-12-06T22:01:46.901Z,81.81
2018-12-06T22:04:18.970Z,82.34
2018-12-06T22:06:49.965Z,81.06
2018-12-06T22:09:24.241Z,81.11
2018-12-06T22:11:57.506Z,81.93
2018-12-06T22:14:28.302Z,82.67
2018-12-06T22:17:02.099Z,81.63
2018-12-06T22:19:33.622Z,84.18
2018-12-06T22:22:11.569Z,85.87
2018-12-06T22:24:45.602Z,86.81
2018-12-06T22:27:16.323Z,84.66
2018-12-06T22:29:49.139Z,83.16
2018-12-06T22:32:21.415Z,82.60
2018-12-06T22:34:55.268Z,82.12
2018-12-06T22:37:29.197Z,80.83
2018-12-06T22:40:02.119Z,80.52
2018-12-06T22:42:36.502Z,80.02
2018-12-06T22:48:15.779Z,80.19
2018-12-06T22:50:49.761Z,80.32
2018-12-06T22:53:21.244Z,80.93
2018-12-06T22:55:54.890Z,80.00
2018-12-06T22:58:28.464Z,78.66
2018-12-06T23:01:02.391Z,77.46
2018-12-06T23:03:33.785Z,77.81
2018-12-06T23:06:05.847Z,80.69
2018-12-06T23:08:36.982Z,79.99
2018-12-06T23:11:13.359Z,84.40
2018-12-06T23:13:46.231Z,82.48
2018-12-06T23:16:17.466Z,84.62
2018-12-06T23:18:54.177Z,85.09
2018-12-06T23:21:24.940Z,83.38
2018-12-06T23:23:55.718Z,80.71
2018-12-06T23:26:33.441Z,81.11
2018-12-06T23:29:05.505Z,80.80
2018-12-06T23:31:37.633Z,79.60
2018-12-06T23:36:47.366Z,82.20
2018-12-06T23:39:20.508Z,80.41
2018-12-06T23:41:51.782Z,79.53
2018-12-06T23:44:24.324Z,76.97
2018-12-06T23:46:56.224Z,75.89
2018-12-06T23:49:32.108Z,74.80
2018-12-06T23:52:09.138Z,74.75
2018-12-06T23:54:40.569Z,73.63
2018-12-06T23:57:13.623Z,78.23
2018-12-06T23:59:44.307Z,79.27
